sensor_id;sensor_type;location;lat;lon;timestamp;P1;durP1;ratioP1;P2;durP2;ratioP2
45734;SDS011;31446;49.632;8.328;2023-07-28T00:02:09;3.80;;;2.40;;
45734;SDS011;31446;49.632;8.328;2023-07-28T00:17:15;2.05;;;1.70;;
45734;SDS011;31446;49.632;8.328;2023-07-28T00:32:22;4.50;;;2.00;;
45734;SDS011;31446;49.632;8.328;2023-07-28T00:47:28;1.85;;;1.73;;
45734;SDS011;31446;49.632;8.328;2023-07-28T01:02:34;3.53;;;2.10;;
45734;SDS011;31446;49.632;8.328;2023-07-28T01:17:41;4.72;;;2.17;;
45734;SDS011;31446;49.632;8.328;2023-07-28T01:32:48;2.67;;;2.38;;
45734;SDS011;31446;49.632;8.328;2023-07-28T01:47:54;2.90;;;2.20;;
45734;SDS011;31446;49.632;8.328;2023-07-28T02:03:01;4.45;;;2.22;;
45734;SDS011;31446;49.632;8.328;2023-07-28T02:18:08;7.78;;;2.72;;
45734;SDS011;31446;49.632;8.328;2023-07-28T02:33:14;7.55;;;2.10;;
45734;SDS011;31446;49.632;8.328;2023-07-28T02:48:20;2.83;;;1.67;;
45734;SDS011;31446;49.632;8.328;2023-07-28T03:03:27;2.28;;;1.98;;
45734;SDS011;31446;49.632;8.328;2023-07-28T03:18:33;1.95;;;1.80;;
45734;SDS011;31446;49.632;8.328;2023-07-28T03:33:40;1.70;;;1.60;;
45734;SDS011;31446;49.632;8.328;2023-07-28T03:48:46;2.33;;;1.83;;
45734;SDS011;31446;49.632;8.328;2023-07-28T04:03:52;2.22;;;1.95;;
45734;SDS011;31446;49.632;8.328;2023-07-28T04:18:59;1.80;;;1.60;;
45734;SDS011;31446;49.632;8.328;2023-07-28T04:34:06;2.97;;;1.50;;
45734;SDS011;31446;49.632;8.328;2023-07-28T04:49:12;1.58;;;1.40;;
45734;SDS011;31446;49.632;8.328;2023-07-28T05:04:19;1.38;;;0.95;;
45734;SDS011;31446;49.632;8.328;2023-07-28T05:19:28;2.45;;;0.82;;
45734;SDS011;31446;49.632;8.328;2023-07-28T05:34:35;1.63;;;0.90;;
45734;SDS011;31446;49.632;8.328;2023-07-28T05:49:41;4.90;;;1.42;;
45734;SDS011;31446;49.632;8.328;2023-07-28T06:04:48;1.70;;;1.42;;
45734;SDS011;31446;49.632;8.328;2023-07-28T06:19:55;2.38;;;1.08;;
45734;SDS011;31446;49.632;8.328;2023-07-28T06:35:01;1.25;;;1.10;;
45734;SDS011;31446;49.632;8.328;2023-07-28T06:50:08;2.03;;;1.70;;
45734;SDS011;31446;49.632;8.328;2023-07-28T07:05:16;2.22;;;1.48;;
45734;SDS011;31446;49.632;8.328;2023-07-28T07:20:22;2.90;;;1.73;;
45734;SDS011;31446;49.632;8.328;2023-07-28T07:35:29;2.38;;;1.40;;
45734;SDS011;31446;49.632;8.328;2023-07-28T07:50:35;3.38;;;1.98;;
45734;SDS011;31446;49.632;8.328;2023-07-28T08:05:43;1.50;;;1.40;;
45734;SDS011;31446;49.632;8.328;2023-07-28T08:20:50;1.40;;;1.30;;
45734;SDS011;31446;49.632;8.328;2023-07-28T08:35:56;2.25;;;1.42;;
45734;SDS011;31446;49.632;8.328;2023-07-28T08:51:03;1.73;;;1.63;;
45734;SDS011;31446;49.632;8.328;2023-07-28T09:06:11;1.35;;;1.30;;
45734;SDS011;31446;49.632;8.328;2023-07-28T09:21:20;2.63;;;1.02;;
45734;SDS011;31446;49.632;8.328;2023-07-28T09:36:27;2.95;;;0.75;;
45734;SDS011;31446;49.632;8.328;2023-07-28T09:51:33;1.08;;;0.70;;
45734;SDS011;31446;49.632;8.328;2023-07-28T10:06:41;1.05;;;0.95;;
45734;SDS011;31446;49.632;8.328;2023-07-28T10:21:48;0.85;;;0.85;;
45734;SDS011;31446;49.632;8.328;2023-07-28T10:37:01;0.90;;;0.90;;
45734;SDS011;31446;49.632;8.328;2023-07-28T10:52:10;1.13;;;1.00;;
45734;SDS011;31446;49.632;8.328;2023-07-28T11:07:17;1.20;;;1.20;;
45734;SDS011;31446;49.632;8.328;2023-07-28T11:22:23;0.85;;;0.77;;
45734;SDS011;31446;49.632;8.328;2023-07-28T11:37:30;10.02;;;1.25;;
45734;SDS011;31446;49.632;8.328;2023-07-28T11:52:37;3.28;;;1.13;;
45734;SDS011;31446;49.632;8.328;2023-07-28T12:07:46;3.72;;;0.90;;
45734;SDS011;31446;49.632;8.328;2023-07-28T12:22:53;1.65;;;1.20;;
45734;SDS011;31446;49.632;8.328;2023-07-28T12:38:00;2.00;;;1.35;;
45734;SDS011;31446;49.632;8.328;2023-07-28T12:53:07;2.83;;;1.05;;
45734;SDS011;31446;49.632;8.328;2023-07-28T13:08:14;1.95;;;0.90;;
45734;SDS011;31446;49.632;8.328;2023-07-28T13:23:20;4.47;;;1.00;;
45734;SDS011;31446;49.632;8.328;2023-07-28T13:38:26;2.03;;;1.00;;
45734;SDS011;31446;49.632;8.328;2023-07-28T13:53:35;2.03;;;1.17;;
45734;SDS011;31446;49.632;8.328;2023-07-28T14:08:41;2.60;;;1.00;;
45734;SDS011;31446;49.632;8.328;2023-07-28T14:23:50;2.47;;;1.10;;
45734;SDS011;31446;49.632;8.328;2023-07-28T14:38:56;6.50;;;1.00;;
45734;SDS011;31446;49.632;8.328;2023-07-28T14:54:02;0.95;;;0.95;;
45734;SDS011;31446;49.632;8.328;2023-07-28T15:24:55;3.08;;;2.15;;
45734;SDS011;31446;49.632;8.328;2023-07-28T15:40:03;2.42;;;1.52;;
45734;SDS011;31446;49.632;8.328;2023-07-28T15:55:11;6.03;;;1.60;;
45734;SDS011;31446;49.632;8.328;2023-07-28T16:10:17;2.78;;;1.50;;
45734;SDS011;31446;49.632;8.328;2023-07-28T16:25:24;3.50;;;1.48;;
45734;SDS011;31446;49.632;8.328;2023-07-28T16:40:31;1.95;;;0.80;;
45734;SDS011;31446;49.632;8.328;2023-07-28T16:55:38;3.08;;;1.35;;
45734;SDS011;31446;49.632;8.328;2023-07-28T17:10:46;2.15;;;1.20;;
45734;SDS011;31446;49.632;8.328;2023-07-28T17:25:53;1.40;;;0.70;;
45734;SDS011;31446;49.632;8.328;2023-07-28T17:41:00;2.72;;;0.70;;
45734;SDS011;31446;49.632;8.328;2023-07-28T17:56:06;0.68;;;0.60;;
45734;SDS011;31446;49.632;8.328;2023-07-28T18:11:13;0.73;;;0.73;;
45734;SDS011;31446;49.632;8.328;2023-07-28T18:26:22;3.53;;;1.58;;
45734;SDS011;31446;49.632;8.328;2023-07-28T18:41:40;3.38;;;2.50;;
45734;SDS011;31446;49.632;8.328;2023-07-28T18:56:47;3.55;;;2.53;;
45734;SDS011;31446;49.632;8.328;2023-07-28T19:11:53;4.68;;;3.00;;
45734;SDS011;31446;49.632;8.328;2023-07-28T19:27:00;5.45;;;3.20;;
45734;SDS011;31446;49.632;8.328;2023-07-28T19:42:07;4.80;;;3.67;;
45734;SDS011;31446;49.632;8.328;2023-07-28T19:57:14;10.43;;;4.25;;
45734;SDS011;31446;49.632;8.328;2023-07-28T20:12:23;12.68;;;4.85;;
45734;SDS011;31446;49.632;8.328;2023-07-28T20:27:30;7.47;;;3.60;;
45734;SDS011;31446;49.632;8.328;2023-07-28T20:42:38;4.22;;;3.30;;
45734;SDS011;31446;49.632;8.328;2023-07-28T20:57:44;6.88;;;3.65;;
45734;SDS011;31446;49.632;8.328;2023-07-28T21:12:52;5.13;;;2.90;;
45734;SDS011;31446;49.632;8.328;2023-07-28T21:27:58;5.00;;;3.22;;
45734;SDS011;31446;49.632;8.328;2023-07-28T21:43:05;7.38;;;3.53;;
45734;SDS011;31446;49.632;8.328;2023-07-28T21:58:12;6.22;;;4.05;;
45734;SDS011;31446;49.632;8.328;2023-07-28T22:13:18;5.25;;;3.80;;
45734;SDS011;31446;49.632;8.328;2023-07-28T22:28:24;5.45;;;3.60;;
45734;SDS011;31446;49.632;8.328;2023-07-28T22:43:31;5.22;;;3.47;;
45734;SDS011;31446;49.632;8.328;2023-07-28T22:58:38;8.63;;;4.18;;
45734;SDS011;31446;49.632;8.328;2023-07-28T23:13:44;6.10;;;4.22;;
45734;SDS011;31446;49.632;8.328;2023-07-28T23:28:51;8.55;;;4.70;;
45734;SDS011;31446;49.632;8.328;2023-07-28T23:43:57;11.85;;;4.60;;
45734;SDS011;31446;49.632;8.328;2023-07-28T23:59:04;7.38;;;4.95;;
